sensor_id;sensor_type;location;lat;lon;timestamp;pressure;altitude;pressure_sealevel;temperature;humidity
7966;BME280;4028;43.272;26.932;2023-05-10T00:01:55;99713.47;;;8.48;100.00
7966;BME280;4028;43.272;26.932;2023-05-10T00:04:20;99714.09;;;8.51;100.00
7966;BME280;4028;43.272;26.932;2023-05-10T00:06:46;99715.25;;;8.36;100.00
7966;BME280;4028;43.272;26.932;2023-05-10T00:09:12;99707.34;;;8.36;100.00
7966;BME280;4028;43.272;26.932;2023-05-10T00:11:37;99714.31;;;8.37;100.00
7966;BME280;4028;43.272;26.932;2023-05-10T00:14:03;99683.75;;;8.11;100.00
7966;BME280;4028;43.272;26.932;2023-05-10T00:16:29;99708.63;;;8.30;100.00
7966;BME280;4028;43.272;26.932;2023-05-10T00:18:54;99709.59;;;8.29;100.00
7966;BME280;4028;43.272;26.932;2023-05-10T00:21:20;99696.69;;;8.14;100.00
7966;BME280;4028;43.272;26.932;2023-05-10T00:23:45;99708.63;;;8.30;100.00
7966;BME280;4028;43.272;26.932;2023-05-10T00:26:11;99707.28;;;8.25;100.00
7966;BME280;4028;43.272;26.932;2023-05-10T00:28:37;99702.38;;;8.31;100.00
7966;BME280;4028;43.272;26.932;2023-05-10T00:31:03;99700.31;;;8.24;100.00
7966;BME280;4028;43.272;26.932;2023-05-10T00:33:28;99697.81;;;8.22;100.00
7966;BME280;4028;43.272;26.932;2023-05-10T00:35:54;99695.34;;;8.08;100.00
7966;BME280;4028;43.272;26.932;2023-05-10T00:38:19;99700.28;;;8.13;100.00
7966;BME280;4028;43.272;26.932;2023-05-10T00:40:44;99699.94;;;8.17;100.00
7966;BME280;4028;43.272;26.932;2023-05-10T00:43:10;99704.84;;;8.11;100.00
7966;BME280;4028;43.272;26.932;2023-05-10T00:45:36;99707.19;;;8.02;100.00
7966;BME280;4028;43.272;26.932;2023-05-10T00:48:02;99701.47;;;8.08;100.00
7966;BME280;4028;43.272;26.932;2023-05-10T00:50:30;99702.47;;;8.19;100.00
7966;BME280;4028;43.272;26.932;2023-05-10T00:52:56;99711.66;;;8.13;100.00
7966;BME280;4028;43.272;26.932;2023-05-10T00:55:23;99700.88;;;8.05;100.00
7966;BME280;4028;43.272;26.932;2023-05-10T00:57:48;99707.31;;;8.01;100.00
7966;BME280;4028;43.272;26.932;2023-05-10T01:00:14;99704.69;;;8.01;100.00
7966;BME280;4028;43.272;26.932;2023-05-10T01:02:44;99707.81;;;8.06;100.00
7966;BME280;4028;43.272;26.932;2023-05-10T01:05:10;99712.09;;;7.96;100.00
7966;BME280;4028;43.272;26.932;2023-05-10T01:07:35;99704.25;;;7.83;100.00
7966;BME280;4028;43.272;26.932;2023-05-10T01:10:01;99704.66;;;7.90;100.00
7966;BME280;4028;43.272;26.932;2023-05-10T01:12:27;99696.25;;;7.85;100.00
7966;BME280;4028;43.272;26.932;2023-05-10T01:14:52;99695.34;;;7.73;100.00
7966;BME280;4028;43.272;26.932;2023-05-10T01:17:19;99707.75;;;7.84;100.00
7966;BME280;4028;43.272;26.932;2023-05-10T01:19:45;99681.94;;;7.76;100.00
7966;BME280;4028;43.272;26.932;2023-05-10T01:25:05;99696.44;;;7.81;100.00
7966;BME280;4028;43.272;26.932;2023-05-10T01:35:45;99694.28;;;7.75;100.00
7966;BME280;4028;43.272;26.932;2023-05-10T01:43:44;99686.94;;;7.68;100.00
7966;BME280;4028;43.272;26.932;2023-05-10T01:46:17;99685.69;;;7.85;100.00
7966;BME280;4028;43.272;26.932;2023-05-10T01:48:51;99696.94;;;7.87;100.00
7966;BME280;4028;43.272;26.932;2023-05-10T01:51:25;99689.34;;;7.71;100.00
7966;BME280;4028;43.272;26.932;2023-05-10T01:53:56;99697.13;;;7.72;100.00
7966;BME280;4028;43.272;26.932;2023-05-10T01:56:26;99695.69;;;7.68;100.00
7966;BME280;4028;43.272;26.932;2023-05-10T01:58:53;99685.56;;;7.62;100.00
7966;BME280;4028;43.272;26.932;2023-05-10T02:01:21;99682.44;;;7.57;100.00
7966;BME280;4028;43.272;26.932;2023-05-10T02:03:47;99693.84;;;7.58;100.00
7966;BME280;4028;43.272;26.932;2023-05-10T02:06:16;99690.13;;;7.60;100.00
7966;BME280;4028;43.272;26.932;2023-05-10T02:08:45;99697.63;;;7.53;100.00
7966;BME280;4028;43.272;26.932;2023-05-10T02:11:13;99689.31;;;7.47;100.00
7966;BME280;4028;43.272;26.932;2023-05-10T02:13:39;99677.94;;;7.46;100.00
7966;BME280;4028;43.272;26.932;2023-05-10T02:16:05;99690.91;;;7.49;100.00
7966;BME280;4028;43.272;26.932;2023-05-10T02:18:32;99689.78;;;7.41;100.00
7966;BME280;4028;43.272;26.932;2023-05-10T02:20:59;99695.47;;;7.35;100.00
7966;BME280;4028;43.272;26.932;2023-05-10T02:23:26;99688.09;;;7.40;100.00
7966;BME280;4028;43.272;26.932;2023-05-10T02:25:53;99681.53;;;7.45;100.00
7966;BME280;4028;43.272;26.932;2023-05-10T02:28:21;99681.03;;;7.40;100.00
7966;BME280;4028;43.272;26.932;2023-05-10T02:30:47;99680.13;;;7.28;100.00
7966;BME280;4028;43.272;26.932;2023-05-10T02:33:13;99682.28;;;7.47;100.00
7966;BME280;4028;43.272;26.932;2023-05-10T02:35:39;99690.22;;;7.35;100.00
7966;BME280;4028;43.272;26.932;2023-05-10T02:38:06;99683.16;;;7.35;100.00
7966;BME280;4028;43.272;26.932;2023-05-10T02:40:33;99685.25;;;7.43;100.00
7966;BME280;4028;43.272;26.932;2023-05-10T02:43:01;99677.78;;;7.37;100.00
7966;BME280;4028;43.272;26.932;2023-05-10T02:45:29;99666.22;;;7.26;100.00
7966;BME280;4028;43.272;26.932;2023-05-10T02:47:56;99689.06;;;7.39;100.00
7966;BME280;4028;43.272;26.932;2023-05-10T02:50:25;99675.06;;;7.25;100.00
7966;BME280;4028;43.272;26.932;2023-05-10T02:52:56;99677.88;;;7.35;100.00
7966;BME280;4028;43.272;26.932;2023-05-10T02:55:27;99679.88;;;7.32;100.00
7966;BME280;4028;43.272;26.932;2023-05-10T02:57:59;99682.09;;;7.38;100.00
7966;BME280;4028;43.272;26.932;2023-05-10T03:00:25;99675.44;;;7.45;100.00
7966;BME280;4028;43.272;26.932;2023-05-10T03:02:51;99678.97;;;7.56;100.00
7966;BME280;4028;43.272;26.932;2023-05-10T03:05:17;99676.91;;;7.49;100.00
7966;BME280;4028;43.272;26.932;2023-05-10T03:07:43;99678.41;;;7.40;100.00
7966;BME280;4028;43.272;26.932;2023-05-10T03:10:09;99687.03;;;7.42;100.00
7966;BME280;4028;43.272;26.932;2023-05-10T03:20:14;99683.19;;;7.59;100.00
7966;BME280;4028;43.272;26.932;2023-05-10T03:22:46;99674.53;;;7.57;100.00
7966;BME280;4028;43.272;26.932;2023-05-10T03:25:15;99684.97;;;7.59;100.00
7966;BME280;4028;43.272;26.932;2023-05-10T03:27:43;99689.06;;;7.63;100.00
7966;BME280;4028;43.272;26.932;2023-05-10T03:30:12;99685.16;;;7.68;100.00
7966;BME280;4028;43.272;26.932;2023-05-10T03:32:38;99689.00;;;7.75;100.00
7966;BME280;4028;43.272;26.932;2023-05-10T03:35:08;99684.03;;;7.84;100.00
7966;BME280;4028;43.272;26.932;2023-05-10T03:37:33;99685.28;;;8.02;100.00
7966;BME280;4028;43.272;26.932;2023-05-10T03:39:59;99695.75;;;8.15;100.00
7966;BME280;4028;43.272;26.932;2023-05-10T03:42:25;99692.66;;;8.67;100.00
7966;BME280;4028;43.272;26.932;2023-05-10T03:44:50;99690.66;;;9.59;100.00
7966;BME280;4028;43.272;26.932;2023-05-10T03:47:16;99691.75;;;10.83;100.00
7966;BME280;4028;43.272;26.932;2023-05-10T03:49:41;99686.03;;;12.27;100.00
7966;BME280;4028;43.272;26.932;2023-05-10T03:52:07;99679.03;;;13.57;100.00
7966;BME280;4028;43.272;26.932;2023-05-10T03:54:32;99684.22;;;14.81;100.00
7966;BME280;4028;43.272;26.932;2023-05-10T03:56:58;99678.81;;;15.92;100.00
7966;BME280;4028;43.272;26.932;2023-05-10T03:59:23;99680.28;;;16.84;85.37
7966;BME280;4028;43.272;26.932;2023-05-10T04:01:49;99670.50;;;17.70;74.37
7966;BME280;4028;43.272;26.932;2023-05-10T04:04:14;99675.50;;;18.42;66.89
7966;BME280;4028;43.272;26.932;2023-05-10T04:06:40;99672.47;;;19.12;62.37
7966;BME280;4028;43.272;26.932;2023-05-10T04:09:05;99672.78;;;19.90;58.21
7966;BME280;4028;43.272;26.932;2023-05-10T04:11:30;99680.25;;;20.59;54.63
7966;BME280;4028;43.272;26.932;2023-05-10T04:13:56;99681.41;;;21.19;51.59
7966;BME280;4028;43.272;26.932;2023-05-10T04:16:22;99684.38;;;21.78;49.85
7966;BME280;4028;43.272;26.932;2023-05-10T04:18:47;99678.91;;;22.33;48.04
7966;BME280;4028;43.272;26.932;2023-05-10T04:21:14;99678.44;;;22.76;46.41
7966;BME280;4028;43.272;26.932;2023-05-10T04:23:40;99691.66;;;23.24;44.75
7966;BME280;4028;43.272;26.932;2023-05-10T04:26:06;99694.00;;;23.00;44.49
7966;BME280;4028;43.272;26.932;2023-05-10T04:28:31;99689.69;;;22.60;43.63
7966;BME280;4028;43.272;26.932;2023-05-10T04:31:03;99689.88;;;22.45;44.21
7966;BME280;4028;43.272;26.932;2023-05-10T04:33:29;99690.50;;;22.67;44.02
7966;BME280;4028;43.272;26.932;2023-05-10T04:35:55;99691.34;;;22.94;43.99
7966;BME280;4028;43.272;26.932;2023-05-10T04:38:20;99691.13;;;22.89;43.99
7966;BME280;4028;43.272;26.932;2023-05-10T04:40:45;99698.38;;;22.22;44.84
7966;BME280;4028;43.272;26.932;2023-05-10T04:43:11;99692.09;;;20.71;47.29
7966;BME280;4028;43.272;26.932;2023-05-10T04:45:36;99697.34;;;19.21;50.78
7966;BME280;4028;43.272;26.932;2023-05-10T04:48:02;99700.53;;;18.11;56.71
7966;BME280;4028;43.272;26.932;2023-05-10T04:50:27;99714.44;;;17.13;64.02
7966;BME280;4028;43.272;26.932;2023-05-10T04:52:53;99702.16;;;16.31;71.44
7966;BME280;4028;43.272;26.932;2023-05-10T04:55:18;99692.75;;;15.70;84.62
7966;BME280;4028;43.272;26.932;2023-05-10T04:57:44;99704.09;;;15.21;100.00
7966;BME280;4028;43.272;26.932;2023-05-10T05:00:10;99702.50;;;14.50;100.00
7966;BME280;4028;43.272;26.932;2023-05-10T05:02:36;99697.81;;;13.91;100.00
7966;BME280;4028;43.272;26.932;2023-05-10T05:05:02;99707.53;;;13.37;100.00
7966;BME280;4028;43.272;26.932;2023-05-10T05:07:27;99707.03;;;13.14;100.00
7966;BME280;4028;43.272;26.932;2023-05-10T05:09:53;99705.66;;;12.63;100.00
7966;BME280;4028;43.272;26.932;2023-05-10T05:12:18;99706.28;;;12.37;100.00
7966;BME280;4028;43.272;26.932;2023-05-10T05:14:44;99708.66;;;12.11;100.00
7966;BME280;4028;43.272;26.932;2023-05-10T05:17:09;99709.50;;;11.83;100.00
7966;BME280;4028;43.272;26.932;2023-05-10T05:19:35;99694.22;;;11.65;100.00
7966;BME280;4028;43.272;26.932;2023-05-10T05:22:01;99702.34;;;11.74;100.00
7966;BME280;4028;43.272;26.932;2023-05-10T05:24:26;99699.41;;;11.77;100.00
7966;BME280;4028;43.272;26.932;2023-05-10T05:26:52;99705.03;;;11.83;100.00
7966;BME280;4028;43.272;26.932;2023-05-10T05:29:17;99703.50;;;12.10;100.00
7966;BME280;4028;43.272;26.932;2023-05-10T05:31:43;99700.00;;;12.29;100.00
7966;BME280;4028;43.272;26.932;2023-05-10T05:34:08;99696.75;;;12.54;100.00
7966;BME280;4028;43.272;26.932;2023-05-10T05:36:36;99707.63;;;12.70;100.00
7966;BME280;4028;43.272;26.932;2023-05-10T05:39:03;99698.66;;;13.09;100.00
7966;BME280;4028;43.272;26.932;2023-05-10T05:41:29;99700.88;;;13.50;100.00
7966;BME280;4028;43.272;26.932;2023-05-10T05:43:54;99702.09;;;13.56;100.00
7966;BME280;4028;43.272;26.932;2023-05-10T05:46:20;99697.56;;;13.84;100.00
7966;BME280;4028;43.272;26.932;2023-05-10T05:48:45;99690.75;;;13.99;100.00
7966;BME280;4028;43.272;26.932;2023-05-10T05:51:11;99697.19;;;14.50;100.00
7966;BME280;4028;43.272;26.932;2023-05-10T05:53:36;99692.94;;;14.66;100.00
7966;BME280;4028;43.272;26.932;2023-05-10T05:56:02;99686.44;;;14.60;100.00
7966;BME280;4028;43.272;26.932;2023-05-10T05:58:28;99705.00;;;14.78;100.00
7966;BME280;4028;43.272;26.932;2023-05-10T06:00:54;99703.28;;;14.95;100.00
7966;BME280;4028;43.272;26.932;2023-05-10T06:03:19;99705.63;;;15.40;100.00
7966;BME280;4028;43.272;26.932;2023-05-10T06:05:45;99710.25;;;15.64;100.00
7966;BME280;4028;43.272;26.932;2023-05-10T06:08:10;99706.44;;;15.67;100.00
7966;BME280;4028;43.272;26.932;2023-05-10T06:10:36;99710.16;;;15.90;100.00
7966;BME280;4028;43.272;26.932;2023-05-10T06:13:02;99718.19;;;16.15;100.00
7966;BME280;4028;43.272;26.932;2023-05-10T06:15:28;99695.19;;;16.38;98.70
7966;BME280;4028;43.272;26.932;2023-05-10T06:17:53;99719.03;;;16.48;99.39
7966;BME280;4028;43.272;26.932;2023-05-10T06:20:19;99704.19;;;16.53;90.46
7966;BME280;4028;43.272;26.932;2023-05-10T06:22:44;99717.19;;;16.73;89.81
7966;BME280;4028;43.272;26.932;2023-05-10T06:25:10;99716.19;;;16.90;98.20
7966;BME280;4028;43.272;26.932;2023-05-10T06:27:36;99715.50;;;16.88;80.26
7966;BME280;4028;43.272;26.932;2023-05-10T06:30:05;99719.69;;;16.82;89.42
7966;BME280;4028;43.272;26.932;2023-05-10T06:32:30;99715.25;;;17.14;92.61
7966;BME280;4028;43.272;26.932;2023-05-10T06:34:56;99720.44;;;17.15;76.85
7966;BME280;4028;43.272;26.932;2023-05-10T06:37:22;99719.75;;;17.61;82.75
7966;BME280;4028;43.272;26.932;2023-05-10T06:39:47;99721.41;;;17.31;75.93
7966;BME280;4028;43.272;26.932;2023-05-10T06:42:12;99722.69;;;17.43;85.94
7966;BME280;4028;43.272;26.932;2023-05-10T06:44:38;99723.16;;;16.99;76.39
7966;BME280;4028;43.272;26.932;2023-05-10T06:47:03;99717.66;;;17.01;81.73
7966;BME280;4028;43.272;26.932;2023-05-10T06:49:29;99707.28;;;17.45;84.28
7966;BME280;4028;43.272;26.932;2023-05-10T06:51:58;99722.00;;;17.80;76.25
7966;BME280;4028;43.272;26.932;2023-05-10T06:54:23;99731.09;;;18.02;67.75
7966;BME280;4028;43.272;26.932;2023-05-10T06:56:49;99723.75;;;18.42;67.83
7966;BME280;4028;43.272;26.932;2023-05-10T06:59:14;99727.28;;;18.57;63.62
7966;BME280;4028;43.272;26.932;2023-05-10T07:01:42;99730.53;;;18.76;63.98
7966;BME280;4028;43.272;26.932;2023-05-10T07:04:07;99731.56;;;18.66;59.71
7966;BME280;4028;43.272;26.932;2023-05-10T07:06:33;99721.28;;;18.93;61.83
7966;BME280;4028;43.272;26.932;2023-05-10T07:08:59;99711.84;;;18.82;58.34
7966;BME280;4028;43.272;26.932;2023-05-10T07:11:25;99723.88;;;18.49;58.78
7966;BME280;4028;43.272;26.932;2023-05-10T07:13:52;99727.56;;;18.70;60.97
7966;BME280;4028;43.272;26.932;2023-05-10T07:16:17;99729.16;;;18.80;63.58
7966;BME280;4028;43.272;26.932;2023-05-10T07:18:43;99727.88;;;19.20;59.66
7966;BME280;4028;43.272;26.932;2023-05-10T07:21:08;99713.25;;;19.37;59.90
7966;BME280;4028;43.272;26.932;2023-05-10T07:23:34;99723.66;;;19.77;57.50
7966;BME280;4028;43.272;26.932;2023-05-10T07:25:59;99727.00;;;19.49;56.17
7966;BME280;4028;43.272;26.932;2023-05-10T07:28:25;99728.50;;;19.07;57.90
7966;BME280;4028;43.272;26.932;2023-05-10T07:30:51;99731.00;;;18.56;64.72
7966;BME280;4028;43.272;26.932;2023-05-10T07:33:16;99710.97;;;18.29;60.21
7966;BME280;4028;43.272;26.932;2023-05-10T07:35:42;99733.75;;;18.71;60.60
7966;BME280;4028;43.272;26.932;2023-05-10T07:38:08;99736.00;;;18.59;58.39
7966;BME280;4028;43.272;26.932;2023-05-10T07:40:33;99735.47;;;17.95;61.65
7966;BME280;4028;43.272;26.932;2023-05-10T07:42:59;99739.72;;;18.12;63.90
7966;BME280;4028;43.272;26.932;2023-05-10T07:45:27;99735.66;;;18.16;59.61
7966;BME280;4028;43.272;26.932;2023-05-10T07:47:52;99727.06;;;17.75;59.84
7966;BME280;4028;43.272;26.932;2023-05-10T07:50:18;99735.28;;;17.65;64.20
7966;BME280;4028;43.272;26.932;2023-05-10T07:52:43;99727.53;;;17.71;68.22
7966;BME280;4028;43.272;26.932;2023-05-10T07:55:09;99741.25;;;16.81;71.05
7966;BME280;4028;43.272;26.932;2023-05-10T07:57:35;99735.06;;;16.40;73.85
7966;BME280;4028;43.272;26.932;2023-05-10T08:00:00;99738.22;;;16.27;80.82
7966;BME280;4028;43.272;26.932;2023-05-10T08:02:26;99732.88;;;16.51;91.03
7966;BME280;4028;43.272;26.932;2023-05-10T08:04:51;99730.91;;;17.33;82.37
7966;BME280;4028;43.272;26.932;2023-05-10T08:07:18;99718.25;;;17.58;70.03
7966;BME280;4028;43.272;26.932;2023-05-10T08:09:43;99718.09;;;17.91;66.89
7966;BME280;4028;43.272;26.932;2023-05-10T08:12:09;99735.66;;;18.16;64.62
7966;BME280;4028;43.272;26.932;2023-05-10T08:14:34;99722.03;;;18.49;58.89
7966;BME280;4028;43.272;26.932;2023-05-10T08:17:02;99729.78;;;18.82;58.31
7966;BME280;4028;43.272;26.932;2023-05-10T08:19:28;99726.03;;;19.35;56.19
7966;BME280;4028;43.272;26.932;2023-05-10T08:21:53;99730.56;;;19.20;54.05
7966;BME280;4028;43.272;26.932;2023-05-10T08:24:21;99745.06;;;18.58;56.06
7966;BME280;4028;43.272;26.932;2023-05-10T08:26:47;99743.06;;;18.14;58.02
7966;BME280;4028;43.272;26.932;2023-05-10T08:29:13;99739.00;;;18.18;59.37
7966;BME280;4028;43.272;26.932;2023-05-10T08:31:39;99738.38;;;18.77;60.31
7966;BME280;4028;43.272;26.932;2023-05-10T08:34:04;99728.03;;;18.74;56.86
7966;BME280;4028;43.272;26.932;2023-05-10T08:36:30;99742.25;;;18.06;58.01
7966;BME280;4028;43.272;26.932;2023-05-10T08:38:57;99736.63;;;17.22;61.00
7966;BME280;4028;43.272;26.932;2023-05-10T08:41:24;99729.69;;;16.88;63.99
7966;BME280;4028;43.272;26.932;2023-05-10T08:43:53;99738.19;;;17.56;62.81
7966;BME280;4028;43.272;26.932;2023-05-10T08:46:21;99732.22;;;18.08;61.27
7966;BME280;4028;43.272;26.932;2023-05-10T08:48:48;99741.72;;;17.87;63.29
7966;BME280;4028;43.272;26.932;2023-05-10T08:51:24;99742.22;;;17.52;63.49
7966;BME280;4028;43.272;26.932;2023-05-10T08:53:53;99745.94;;;17.34;64.91
7966;BME280;4028;43.272;26.932;2023-05-10T08:56:19;99734.72;;;17.39;62.51
7966;BME280;4028;43.272;26.932;2023-05-10T08:58:45;99747.59;;;17.83;62.38
7966;BME280;4028;43.272;26.932;2023-05-10T09:01:12;99737.13;;;17.65;62.16
7966;BME280;4028;43.272;26.932;2023-05-10T09:03:39;99740.50;;;18.44;62.48
7966;BME280;4028;43.272;26.932;2023-05-10T09:06:05;99746.16;;;18.03;58.88
7966;BME280;4028;43.272;26.932;2023-05-10T09:08:32;99751.78;;;17.38;60.79
7966;BME280;4028;43.272;26.932;2023-05-10T09:11:00;99714.00;;;16.69;61.53
7966;BME280;4028;43.272;26.932;2023-05-10T09:13:26;99736.03;;;16.63;65.61
7966;BME280;4028;43.272;26.932;2023-05-10T09:15:52;99727.88;;;16.56;66.99
7966;BME280;4028;43.272;26.932;2023-05-10T09:18:18;99738.34;;;16.99;66.09
7966;BME280;4028;43.272;26.932;2023-05-10T09:20:44;99710.50;;;16.69;60.71
7966;BME280;4028;43.272;26.932;2023-05-10T09:23:10;99730.38;;;16.66;62.28
7966;BME280;4028;43.272;26.932;2023-05-10T09:25:35;99731.88;;;16.60;61.79
7966;BME280;4028;43.272;26.932;2023-05-10T09:28:06;99712.22;;;17.25;61.96
7966;BME280;4028;43.272;26.932;2023-05-10T09:30:31;99713.47;;;18.08;58.31
7966;BME280;4028;43.272;26.932;2023-05-10T09:32:58;99727.69;;;18.31;57.35
7966;BME280;4028;43.272;26.932;2023-05-10T09:35:26;99721.75;;;17.98;58.91
7966;BME280;4028;43.272;26.932;2023-05-10T09:37:53;99721.47;;;17.85;59.37
7966;BME280;4028;43.272;26.932;2023-05-10T09:40:22;99726.88;;;18.08;57.88
7966;BME280;4028;43.272;26.932;2023-05-10T09:43:07;99711.28;;;18.72;56.81
7966;BME280;4028;43.272;26.932;2023-05-10T09:45:34;99712.31;;;19.60;55.51
7966;BME280;4028;43.272;26.932;2023-05-10T09:48:01;99718.88;;;19.57;54.10
7966;BME280;4028;43.272;26.932;2023-05-10T09:50:28;99706.41;;;19.35;53.18
7966;BME280;4028;43.272;26.932;2023-05-10T09:53:01;99713.84;;;18.65;52.58
7966;BME280;4028;43.272;26.932;2023-05-10T09:55:43;99710.50;;;17.72;54.84
7966;BME280;4028;43.272;26.932;2023-05-10T09:58:10;99708.19;;;17.60;56.35
7966;BME280;4028;43.272;26.932;2023-05-10T10:00:37;99707.03;;;17.94;56.16
7966;BME280;4028;43.272;26.932;2023-05-10T10:03:04;99702.91;;;17.52;56.36
7966;BME280;4028;43.272;26.932;2023-05-10T10:05:30;99716.53;;;17.65;55.73
7966;BME280;4028;43.272;26.932;2023-05-10T10:08:02;99707.69;;;17.96;56.87
7966;BME280;4028;43.272;26.932;2023-05-10T10:10:29;99669.28;;;18.12;55.10
7966;BME280;4028;43.272;26.932;2023-05-10T10:12:55;99696.81;;;18.58;52.56
7966;BME280;4028;43.272;26.932;2023-05-10T10:15:21;99703.25;;;19.02;53.90
7966;BME280;4028;43.272;26.932;2023-05-10T10:17:48;99701.06;;;19.35;50.54
7966;BME280;4028;43.272;26.932;2023-05-10T10:20:15;99700.63;;;19.53;53.06
7966;BME280;4028;43.272;26.932;2023-05-10T10:22:41;99692.84;;;19.58;50.13
7966;BME280;4028;43.272;26.932;2023-05-10T10:25:10;99691.78;;;19.88;48.82
7966;BME280;4028;43.272;26.932;2023-05-10T10:30:39;99692.09;;;19.79;49.86
7966;BME280;4028;43.272;26.932;2023-05-10T10:35:55;99673.69;;;18.57;53.13
7966;BME280;4028;43.272;26.932;2023-05-10T10:38:23;99687.63;;;18.15;51.71
7966;BME280;4028;43.272;26.932;2023-05-10T10:41:02;99695.63;;;18.00;54.09
7966;BME280;4028;43.272;26.932;2023-05-10T10:43:28;99690.44;;;17.99;52.52
7966;BME280;4028;43.272;26.932;2023-05-10T10:46:13;99692.44;;;17.65;52.91
7966;BME280;4028;43.272;26.932;2023-05-10T10:49:21;99680.19;;;17.79;52.27
7966;BME280;4028;43.272;26.932;2023-05-10T10:51:30;99679.09;;;17.97;51.60
7966;BME280;4028;43.272;26.932;2023-05-10T10:54:08;99666.75;;;18.10;51.38
7966;BME280;4028;43.272;26.932;2023-05-10T10:56:34;99675.22;;;18.22;52.85
7966;BME280;4028;43.272;26.932;2023-05-10T10:58:59;99671.47;;;18.08;51.40
7966;BME280;4028;43.272;26.932;2023-05-10T11:01:32;99663.94;;;17.50;52.99
7966;BME280;4028;43.272;26.932;2023-05-10T11:06:34;99677.88;;;17.06;53.82
7966;BME280;4028;43.272;26.932;2023-05-10T11:09:07;99675.97;;;17.14;53.78
7966;BME280;4028;43.272;26.932;2023-05-10T11:11:34;99676.44;;;17.26;52.38
7966;BME280;4028;43.272;26.932;2023-05-10T11:14:04;99673.16;;;17.47;53.59
7966;BME280;4028;43.272;26.932;2023-05-10T11:16:41;99670.97;;;18.05;54.08
7966;BME280;4028;43.272;26.932;2023-05-10T11:19:09;99658.09;;;18.61;49.66
7966;BME280;4028;43.272;26.932;2023-05-10T11:21:51;99659.03;;;18.53;49.55
7966;BME280;4028;43.272;26.932;2023-05-10T11:24:22;99659.84;;;18.54;50.26
7966;BME280;4028;43.272;26.932;2023-05-10T11:26:51;99661.38;;;18.33;50.43
7966;BME280;4028;43.272;26.932;2023-05-10T11:29:17;99656.56;;;18.29;50.17
7966;BME280;4028;43.272;26.932;2023-05-10T11:31:46;99643.63;;;17.95;51.66
7966;BME280;4028;43.272;26.932;2023-05-10T11:34:32;99660.06;;;17.91;50.66
7966;BME280;4028;43.272;26.932;2023-05-10T11:36:59;99656.94;;;18.03;50.91
7966;BME280;4028;43.272;26.932;2023-05-10T11:39:27;99655.22;;;18.10;51.82
7966;BME280;4028;43.272;26.932;2023-05-10T11:41:53;99644.00;;;18.06;50.09
7966;BME280;4028;43.272;26.932;2023-05-10T11:44:18;99653.44;;;18.02;50.69
7966;BME280;4028;43.272;26.932;2023-05-10T11:46:44;99652.34;;;18.11;51.91
7966;BME280;4028;43.272;26.932;2023-05-10T11:49:09;99651.66;;;18.17;52.26
7966;BME280;4028;43.272;26.932;2023-05-10T11:51:36;99649.25;;;18.00;51.69
7966;BME280;4028;43.272;26.932;2023-05-10T11:54:06;99650.22;;;17.84;52.28
7966;BME280;4028;43.272;26.932;2023-05-10T11:56:33;99649.03;;;18.09;52.99
7966;BME280;4028;43.272;26.932;2023-05-10T11:58:58;99642.19;;;18.44;52.02
7966;BME280;4028;43.272;26.932;2023-05-10T12:01:26;99636.19;;;18.57;49.83
7966;BME280;4028;43.272;26.932;2023-05-10T12:03:54;99644.56;;;18.39;50.72
7966;BME280;4028;43.272;26.932;2023-05-10T12:06:20;99620.75;;;18.59;51.36
7966;BME280;4028;43.272;26.932;2023-05-10T12:08:47;99625.78;;;18.92;49.03
7966;BME280;4028;43.272;26.932;2023-05-10T12:11:13;99620.50;;;18.99;49.83
7966;BME280;4028;43.272;26.932;2023-05-10T12:13:42;99582.78;;;19.00;49.06
7966;BME280;4028;43.272;26.932;2023-05-10T12:16:19;99622.44;;;19.19;47.69
7966;BME280;4028;43.272;26.932;2023-05-10T12:18:48;99610.66;;;18.47;50.01
7966;BME280;4028;43.272;26.932;2023-05-10T12:21:14;99625.31;;;18.21;51.61
7966;BME280;4028;43.272;26.932;2023-05-10T12:23:40;99632.50;;;17.83;54.78
7966;BME280;4028;43.272;26.932;2023-05-10T12:26:09;99621.97;;;17.50;54.91
7966;BME280;4028;43.272;26.932;2023-05-10T12:28:35;99630.97;;;17.26;54.79
7966;BME280;4028;43.272;26.932;2023-05-10T12:31:01;99622.69;;;17.13;55.14
7966;BME280;4028;43.272;26.932;2023-05-10T12:33:27;99643.56;;;17.09;55.01
7966;BME280;4028;43.272;26.932;2023-05-10T12:35:54;99633.13;;;16.92;54.99
7966;BME280;4028;43.272;26.932;2023-05-10T12:38:34;99636.00;;;16.82;56.37
7966;BME280;4028;43.272;26.932;2023-05-10T12:41:02;99633.66;;;16.87;58.38
7966;BME280;4028;43.272;26.932;2023-05-10T12:43:28;99638.84;;;16.80;59.19
7966;BME280;4028;43.272;26.932;2023-05-10T12:45:54;99616.78;;;16.86;59.47
7966;BME280;4028;43.272;26.932;2023-05-10T12:48:20;99624.19;;;17.15;57.14
7966;BME280;4028;43.272;26.932;2023-05-10T12:50:46;99625.13;;;17.31;55.94
7966;BME280;4028;43.272;26.932;2023-05-10T12:53:12;99624.28;;;17.30;55.17
7966;BME280;4028;43.272;26.932;2023-05-10T12:55:39;99622.38;;;17.39;57.47
7966;BME280;4028;43.272;26.932;2023-05-10T12:58:04;99621.84;;;17.44;57.85
7966;BME280;4028;43.272;26.932;2023-05-10T13:00:30;99613.41;;;17.32;58.71
7966;BME280;4028;43.272;26.932;2023-05-10T13:02:55;99612.97;;;17.20;57.92
7966;BME280;4028;43.272;26.932;2023-05-10T13:05:21;99616.94;;;17.24;58.47
7966;BME280;4028;43.272;26.932;2023-05-10T13:07:46;99610.66;;;17.40;58.59
7966;BME280;4028;43.272;26.932;2023-05-10T13:10:12;99600.81;;;17.40;58.90
7966;BME280;4028;43.272;26.932;2023-05-10T13:12:37;99597.69;;;17.29;60.13
7966;BME280;4028;43.272;26.932;2023-05-10T13:15:03;99592.72;;;17.26;61.51
7966;BME280;4028;43.272;26.932;2023-05-10T13:17:29;99599.63;;;17.43;61.65
7966;BME280;4028;43.272;26.932;2023-05-10T13:19:54;99591.31;;;17.61;60.45
7966;BME280;4028;43.272;26.932;2023-05-10T13:22:20;99591.31;;;17.61;61.07
7966;BME280;4028;43.272;26.932;2023-05-10T13:24:45;99587.34;;;17.57;60.10
7966;BME280;4028;43.272;26.932;2023-05-10T13:27:11;99598.38;;;17.54;59.43
7966;BME280;4028;43.272;26.932;2023-05-10T13:29:36;99594.97;;;17.60;61.18
7966;BME280;4028;43.272;26.932;2023-05-10T13:32:02;99592.25;;;17.45;59.08
7966;BME280;4028;43.272;26.932;2023-05-10T13:34:27;99592.34;;;17.29;56.84
7966;BME280;4028;43.272;26.932;2023-05-10T13:36:53;99586.75;;;17.15;58.59
7966;BME280;4028;43.272;26.932;2023-05-10T13:39:20;99588.03;;;16.88;58.81
7966;BME280;4028;43.272;26.932;2023-05-10T13:41:45;99594.75;;;16.84;60.22